createdAt,value
2022-11-22T00:00:43.794Z,100.00
2022-11-22T00:03:11.307Z,100.00
2022-11-22T00:05:38.510Z,100.00
2022-11-22T00:08:06.340Z,100.00
2022-11-22T00:10:33.964Z,100.00
2022-11-22T00:13:01.245Z,100.00
2022-11-22T00:15:29.722Z,100.00
2022-11-22T00:17:57.326Z,100.00
2022-11-22T00:20:24.614Z,100.00
2022-11-22T00:22:52.206Z,100.00
2022-11-22T00:25:19.778Z,100.00
2022-11-22T00:27:47.039Z,100.00
2022-11-22T00:30:14.338Z,100.00
2022-11-22T00:32:41.509Z,100.00
2022-11-22T00:35:10.034Z,100.00
2022-11-22T00:37:38.001Z,100.00
2022-11-22T00:40:06.561Z,100.00
2022-11-22T00:42:33.788Z,100.00
2022-11-22T00:45:01.052Z,100.00
2022-11-22T00:47:28.200Z,100.00
2022-11-22T00:49:55.359Z,100.00
2022-11-22T00:52:22.629Z,100.00
2022-11-22T00:54:54.539Z,100.00
2022-11-22T00:57:22.870Z,100.00
2022-11-22T00:59:50.127Z,100.00
2022-11-22T01:02:17.509Z,100.00
2022-11-22T01:04:44.831Z,100.00
2022-11-22T01:07:12.333Z,100.00
2022-11-22T01:09:39.859Z,100.00
2022-11-22T01:12:07.980Z,100.00
2022-11-22T01:14:35.192Z,100.00
2022-11-22T01:17:02.341Z,100.00
2022-11-22T01:19:29.971Z,100.00
2022-11-22T01:21:57.471Z,100.00
2022-11-22T01:24:24.827Z,100.00
2022-11-22T01:26:52.037Z,100.00
2022-11-22T01:29:19.183Z,100.00
2022-11-22T01:31:46.442Z,100.00
2022-11-22T01:34:13.648Z,100.00
2022-11-22T01:36:40.825Z,100.00
2022-11-22T01:39:08.129Z,100.00
2022-11-22T01:41:35.442Z,100.00
2022-11-22T01:44:25.548Z,100.00
2022-11-22T01:47:00.533Z,100.00
2022-11-22T01:49:57.023Z,100.00
2022-11-22T01:52:29.439Z,100.00
2022-11-22T01:55:02.814Z,100.00
2022-11-22T01:57:37.158Z,100.00
2022-11-22T02:00:09.166Z,100.00
2022-11-22T02:02:50.812Z,100.00
2022-11-22T02:05:22.850Z,100.00
2022-11-22T02:08:19.800Z,100.00
2022-11-22T02:10:53.570Z,100.00
2022-11-22T02:13:23.342Z,100.00
2022-11-22T02:15:52.205Z,100.00
2022-11-22T02:18:19.644Z,100.00
2022-11-22T02:20:47.266Z,100.00
2022-11-22T02:23:29.940Z,100.00
2022-11-22T02:26:01.638Z,100.00
2022-11-22T02:28:38.599Z,100.00
2022-11-22T02:31:06.467Z,100.00
2022-11-22T02:33:33.753Z,100.00
2022-11-22T02:36:01.238Z,100.00
2022-11-22T02:38:35.065Z,100.00
2022-11-22T02:41:12.396Z,100.00
2022-11-22T02:43:44.822Z,100.00
2022-11-22T02:46:23.619Z,100.00
2022-11-22T02:48:51.153Z,100.00
2022-11-22T02:51:20.355Z,100.00
2022-11-22T02:53:50.296Z,100.00
2022-11-22T02:56:19.067Z,100.00
2022-11-22T02:58:46.762Z,100.00
2022-11-22T03:01:14.505Z,100.00
2022-11-22T03:03:41.858Z,100.00
2022-11-22T03:06:09.060Z,100.00
2022-11-22T03:08:36.303Z,100.00
2022-11-22T03:11:03.599Z,100.00
2022-11-22T03:13:31.003Z,100.00
2022-11-22T03:15:58.238Z,100.00
2022-11-22T03:18:25.929Z,100.00
2022-11-22T03:20:53.298Z,100.00
2022-11-22T03:23:20.712Z,100.00
2022-11-22T03:25:47.929Z,100.00
2022-11-22T03:28:15.095Z,100.00
2022-11-22T03:30:42.997Z,100.00
2022-11-22T03:33:10.400Z,100.00
2022-11-22T03:35:37.844Z,100.00
2022-11-22T03:38:05.588Z,100.00
2022-11-22T03:40:33.356Z,100.00
2022-11-22T03:43:02.256Z,100.00
2022-11-22T03:45:30.593Z,100.00
2022-11-22T03:47:58.009Z,100.00
2022-11-22T03:50:25.830Z,100.00
2022-11-22T03:52:53.193Z,100.00
2022-11-22T03:55:20.348Z,100.00
2022-11-22T03:57:47.719Z,100.00
2022-11-22T04:00:15.508Z,100.00
2022-11-22T04:02:44.128Z,100.00
2022-11-22T04:05:11.542Z,100.00
2022-11-22T04:07:38.946Z,100.00
2022-11-22T04:10:07.591Z,100.00
2022-11-22T04:12:35.133Z,100.00
2022-11-22T04:15:08.570Z,100.00
2022-11-22T04:17:43.369Z,100.00
2022-11-22T04:20:49.760Z,100.00
2022-11-22T04:23:23.136Z,100.00
2022-11-22T04:25:55.284Z,100.00
2022-11-22T04:28:54.148Z,100.00
2022-11-22T04:31:31.200Z,100.00
2022-11-22T04:33:58.432Z,100.00
2022-11-22T04:36:25.560Z,100.00
2022-11-22T04:38:52.777Z,100.00
2022-11-22T04:41:20.152Z,100.00
2022-11-22T04:44:06.055Z,100.00
2022-11-22T04:46:33.331Z,100.00
2022-11-22T04:49:00.514Z,100.00
2022-11-22T04:51:46.461Z,100.00
2022-11-22T04:54:13.763Z,100.00
2022-11-22T04:56:40.985Z,100.00
2022-11-22T04:59:08.161Z,100.00
2022-11-22T05:01:35.553Z,100.00
2022-11-22T05:04:02.759Z,100.00
2022-11-22T05:06:29.981Z,100.00
2022-11-22T05:08:57.621Z,100.00
2022-11-22T05:11:24.787Z,100.00
2022-11-22T05:13:52.179Z,100.00
2022-11-22T05:16:19.444Z,100.00
2022-11-22T05:18:59.344Z,100.00
2022-11-22T05:21:29.741Z,100.00
2022-11-22T05:23:57.308Z,100.00
2022-11-22T05:26:31.026Z,100.00
2022-11-22T05:28:59.308Z,100.00
2022-11-22T05:31:27.720Z,100.00
2022-11-22T05:33:57.144Z,100.00
2022-11-22T05:36:25.310Z,100.00
2022-11-22T05:38:53.135Z,100.00
2022-11-22T05:41:20.613Z,100.00
2022-11-22T05:43:47.910Z,100.00
2022-11-22T05:46:25.164Z,100.00
2022-11-22T05:48:54.851Z,100.00
2022-11-22T05:51:30.627Z,100.00
2022-11-22T05:54:01.089Z,100.00
2022-11-22T05:56:28.298Z,100.00
2022-11-22T05:58:55.746Z,100.00
2022-11-22T06:01:24.607Z,100.00
2022-11-22T06:03:52.673Z,100.00
2022-11-22T06:06:20.163Z,100.00
2022-11-22T06:08:48.740Z,100.00
2022-11-22T06:11:17.098Z,100.00
2022-11-22T06:13:47.167Z,100.00
2022-11-22T06:16:15.531Z,100.00
2022-11-22T06:18:43.353Z,100.00
2022-11-22T06:21:17.157Z,100.00
2022-11-22T06:23:45.059Z,100.00
2022-11-22T06:26:17.007Z,100.00
2022-11-22T06:28:45.807Z,100.00
2022-11-22T06:31:19.924Z,100.00
2022-11-22T06:33:47.557Z,100.00
2022-11-22T06:36:35.486Z,100.00
2022-11-22T06:39:03.859Z,100.00
2022-11-22T06:41:36.901Z,100.00
2022-11-22T06:44:09.667Z,100.00
2022-11-22T06:46:38.345Z,100.00
2022-11-22T06:49:05.672Z,100.00
2022-11-22T06:51:33.497Z,100.00
2022-11-22T06:54:00.882Z,100.00
2022-11-22T06:56:36.073Z,100.00
2022-11-22T06:59:05.779Z,100.00
2022-11-22T07:01:35.174Z,100.00
2022-11-22T07:04:03.708Z,100.00
2022-11-22T07:06:37.206Z,100.00
2022-11-22T07:09:10.633Z,100.00
2022-11-22T07:11:39.519Z,100.00
2022-11-22T07:14:08.644Z,100.00
2022-11-22T07:16:38.280Z,100.00
2022-11-22T07:19:06.777Z,100.00
2022-11-22T07:21:35.568Z,100.00
2022-11-22T07:24:06.094Z,100.00
2022-11-22T07:26:33.449Z,100.00
2022-11-22T07:29:00.661Z,100.00
2022-11-22T07:31:28.467Z,100.00
2022-11-22T07:33:58.906Z,100.00
2022-11-22T07:36:28.789Z,100.00
2022-11-22T07:38:56.601Z,100.00
2022-11-22T07:41:23.883Z,100.00
2022-11-22T07:43:53.039Z,64.35
2022-11-22T07:46:31.725Z,51.77
2022-11-22T07:49:01.771Z,50.52
2022-11-22T07:51:29.917Z,49.28
2022-11-22T07:53:58.046Z,45.96
2022-11-22T07:56:25.276Z,43.33
2022-11-22T07:58:52.466Z,41.30
2022-11-22T08:01:21.026Z,40.24
2022-11-22T08:03:48.405Z,40.72
2022-11-22T08:06:16.054Z,39.65
2022-11-22T08:08:44.201Z,38.10
2022-11-22T08:11:12.018Z,39.17
2022-11-22T08:13:40.405Z,41.33
2022-11-22T08:16:11.731Z,39.53
2022-11-22T08:18:40.340Z,41.25
2022-11-22T08:21:10.012Z,41.07
2022-11-22T08:23:38.872Z,43.09
2022-11-22T08:26:08.376Z,44.79
2022-11-22T08:28:36.173Z,45.67
2022-11-22T08:31:09.162Z,47.91
2022-11-22T08:33:36.718Z,45.16
2022-11-22T08:36:04.439Z,45.47
2022-11-22T08:38:31.705Z,46.30
2022-11-22T08:40:59.169Z,43.85
2022-11-22T08:43:26.611Z,43.04
2022-11-22T08:45:59.731Z,41.72
2022-11-22T08:48:28.215Z,40.74
2022-11-22T08:51:01.520Z,41.78
2022-11-22T08:53:30.052Z,40.02
2022-11-22T08:56:01.060Z,41.09
2022-11-22T08:58:31.167Z,40.18
2022-11-22T09:01:11.345Z,40.95
2022-11-22T09:03:38.703Z,40.11
2022-11-22T09:09:21.982Z,39.24
2022-11-22T09:11:46.937Z,38.90
2022-11-22T09:14:14.254Z,36.22
2022-11-22T09:16:41.502Z,35.60
2022-11-22T09:19:08.722Z,35.71
2022-11-22T09:21:35.994Z,37.21
2022-11-22T09:24:03.470Z,35.64
2022-11-22T09:26:31.019Z,36.24
2022-11-22T09:28:58.296Z,38.98
2022-11-22T09:31:25.701Z,38.37
2022-11-22T09:33:53.019Z,40.96
2022-11-22T09:36:24.126Z,42.61
2022-11-22T09:38:52.323Z,40.91
2022-11-22T09:41:53.078Z,43.00
2022-11-22T09:44:32.015Z,49.06
2022-11-22T09:47:36.615Z,53.05
2022-11-22T09:50:29.635Z,54.81
2022-11-22T09:53:05.303Z,57.98
2022-11-22T09:55:48.431Z,62.82
2022-11-22T09:58:48.995Z,63.95
2022-11-22T10:01:39.259Z,65.68
2022-11-22T10:04:25.972Z,67.92
2022-11-22T10:07:05.991Z,68.14
2022-11-22T10:09:58.681Z,68.64
2022-11-22T10:12:46.068Z,69.67
2022-11-22T10:15:48.041Z,69.32
2022-11-22T10:18:34.544Z,69.93
2022-11-22T10:21:01.833Z,71.45
2022-11-22T10:23:29.404Z,72.34
2022-11-22T10:26:13.259Z,71.52
2022-11-22T10:28:54.310Z,72.50
2022-11-22T10:31:44.591Z,74.01
2022-11-22T10:34:57.491Z,74.93
2022-11-22T10:37:35.848Z,75.35
2022-11-22T10:40:12.506Z,73.12
2022-11-22T10:43:07.402Z,74.36
2022-11-22T10:45:43.157Z,73.51
2022-11-22T10:48:48.682Z,70.50
2022-11-22T10:51:49.071Z,70.94
2022-11-22T10:54:46.562Z,72.31
2022-11-22T10:57:19.300Z,73.72
2022-11-22T11:00:21.215Z,73.58
2022-11-22T11:03:00.124Z,78.26
2022-11-22T11:12:19.337Z,72.39
2022-11-22T11:14:53.153Z,72.69
2022-11-22T11:17:33.653Z,73.86
2022-11-22T11:20:07.266Z,70.87
2022-11-22T11:23:12.528Z,70.03
2022-11-22T11:25:40.934Z,71.25
2022-11-22T11:28:16.253Z,71.52
2022-11-22T11:30:50.323Z,69.87
2022-11-22T11:33:38.165Z,73.48
2022-11-22T11:36:17.650Z,72.57
2022-11-22T11:38:44.683Z,71.58
2022-11-22T11:41:29.972Z,72.30
2022-11-22T11:44:04.004Z,74.86
2022-11-22T11:46:46.303Z,74.87
2022-11-22T11:49:21.436Z,73.25
2022-11-22T11:52:01.595Z,73.90
2022-11-22T11:54:48.320Z,76.93
2022-11-22T11:57:22.801Z,76.12
2022-11-22T11:59:52.322Z,73.13
2022-11-22T12:02:40.657Z,71.95
2022-11-22T12:05:28.444Z,68.60
2022-11-22T12:07:56.554Z,68.40
2022-11-22T12:10:55.143Z,71.08
2022-11-22T12:14:04.688Z,69.89
2022-11-22T12:16:36.781Z,73.93
2022-11-22T12:19:29.178Z,69.94
2022-11-22T12:22:29.374Z,68.46
2022-11-22T12:25:37.620Z,66.71
2022-11-22T12:28:27.709Z,68.44
2022-11-22T12:31:21.025Z,67.23
2022-11-22T12:33:56.289Z,68.97
2022-11-22T12:36:47.494Z,66.25
2022-11-22T12:39:25.047Z,68.21
2022-11-22T12:42:31.747Z,72.25
2022-11-22T12:45:10.941Z,74.73
2022-11-22T12:47:42.043Z,75.90
2022-11-22T12:50:20.831Z,77.12
2022-11-22T12:53:17.757Z,77.24
2022-11-22T12:56:31.419Z,77.57
2022-11-22T12:59:11.875Z,81.82
2022-11-22T13:02:00.552Z,77.93
2022-11-22T13:05:19.976Z,79.15
2022-11-22T13:08:06.356Z,77.64
2022-11-22T13:10:53.566Z,77.61
2022-11-22T13:13:45.272Z,74.34
2022-11-22T13:16:13.996Z,76.16
2022-11-22T13:19:02.940Z,75.73
2022-11-22T13:22:17.229Z,73.13
2022-11-22T13:24:59.458Z,72.81
2022-11-22T13:27:36.105Z,72.36
2022-11-22T13:30:04.840Z,71.96
2022-11-22T13:32:36.380Z,73.04
2022-11-22T13:35:11.960Z,71.20
2022-11-22T13:37:46.346Z,71.80
2022-11-22T13:40:16.495Z,70.58
2022-11-22T13:42:43.934Z,70.70
2022-11-22T13:45:24.956Z,70.72
2022-11-22T13:47:52.938Z,69.76
2022-11-22T13:50:59.749Z,69.44
2022-11-22T13:53:37.112Z,68.44
2022-11-22T13:56:16.533Z,69.79
2022-11-22T13:59:15.669Z,70.61
2022-11-22T14:01:42.830Z,69.74
2022-11-22T14:04:42.058Z,69.69
2022-11-22T14:07:12.600Z,69.71
2022-11-22T14:09:51.833Z,70.25
2022-11-22T14:12:46.572Z,69.83
2022-11-22T14:15:26.039Z,70.08
2022-11-22T14:18:22.511Z,70.84
2022-11-22T14:21:29.081Z,70.64
2022-11-22T14:24:16.756Z,70.59
2022-11-22T14:27:20.469Z,70.27
2022-11-22T14:30:03.176Z,70.76
2022-11-22T14:33:05.631Z,70.94
2022-11-22T14:35:39.171Z,70.31
2022-11-22T14:38:28.730Z,69.43
2022-11-22T14:41:40.159Z,69.40
2022-11-22T14:44:07.384Z,68.80
2022-11-22T14:46:54.100Z,69.15
2022-11-22T14:49:48.484Z,69.34
2022-11-22T14:52:29.860Z,69.62
2022-11-22T14:55:06.041Z,69.51
2022-11-22T14:57:36.925Z,69.41
2022-11-22T15:00:24.160Z,70.47
2022-11-22T15:03:13.054Z,69.44
2022-11-22T15:09:10.290Z,69.52
2022-11-22T15:09:52.605Z,69.50
2022-11-22T15:12:47.537Z,69.51
2022-11-22T15:57:32.468Z,74.28
2022-11-22T16:00:00.218Z,73.72
2022-11-22T16:02:32.005Z,77.85
2022-11-22T16:06:09.639Z,83.33
2022-11-22T16:07:57.993Z,78.89
2022-11-22T16:10:39.792Z,81.04
2022-11-22T16:13:19.342Z,83.44
2022-11-22T16:16:10.534Z,84.39
2022-11-22T16:18:44.684Z,86.72
2022-11-22T16:21:11.973Z,80.92
2022-11-22T16:23:45.365Z,73.93
2022-11-22T16:26:22.171Z,80.21
2022-11-22T16:28:52.568Z,83.44
2022-11-22T16:31:31.923Z,86.17
2022-11-22T16:33:59.783Z,90.47
2022-11-22T16:36:30.337Z,79.72
2022-11-22T16:38:57.745Z,83.61
2022-11-22T16:41:30.123Z,79.88
2022-11-22T16:44:02.203Z,78.58
2022-11-22T16:46:30.233Z,78.33
2022-11-22T16:48:57.584Z,85.07
2022-11-22T16:51:28.601Z,82.37
2022-11-22T16:54:00.549Z,84.40
2022-11-22T16:56:30.448Z,87.14
2022-11-22T16:58:58.755Z,80.59
2022-11-22T17:01:32.830Z,82.33
2022-11-22T17:04:03.034Z,81.81
2022-11-22T17:06:31.910Z,82.23
2022-11-22T17:09:00.514Z,82.25
2022-11-22T17:11:31.509Z,90.64
2022-11-22T17:14:00.308Z,86.86
2022-11-22T17:16:29.369Z,89.32
2022-11-22T17:18:57.023Z,87.61
2022-11-22T17:21:37.602Z,89.59
2022-11-22T17:24:17.326Z,91.14
2022-11-22T17:26:44.788Z,87.70
2022-11-22T17:29:34.876Z,85.08
2022-11-22T17:31:59.277Z,88.09
2022-11-22T17:34:26.503Z,86.81
2022-11-22T17:36:53.732Z,88.16
2022-11-22T17:39:20.970Z,86.85
2022-11-22T17:41:51.124Z,84.17
2022-11-22T17:44:18.886Z,88.32
2022-11-22T17:46:47.263Z,89.29
2022-11-22T17:49:16.376Z,88.57
2022-11-22T17:51:44.209Z,85.86
2022-11-22T17:54:11.556Z,88.29
2022-11-22T17:56:39.011Z,84.41
2022-11-22T17:59:06.894Z,87.26
2022-11-22T18:01:36.870Z,85.78
2022-11-22T18:04:04.296Z,84.51
2022-11-22T18:06:32.209Z,85.18
2022-11-22T18:09:00.892Z,81.10
2022-11-22T18:11:28.246Z,80.05
2022-11-22T18:13:55.483Z,85.69
2022-11-22T18:16:28.647Z,86.54
2022-11-22T18:18:58.060Z,82.07
2022-11-22T18:21:32.179Z,85.89
2022-11-22T18:24:00.883Z,87.21
2022-11-22T18:26:43.959Z,93.81
2022-11-22T18:32:01.911Z,92.19
2022-11-22T18:34:30.497Z,94.07
2022-11-22T18:37:03.550Z,97.19
2022-11-22T18:39:35.625Z,95.79
2022-11-22T18:42:14.898Z,95.52
2022-11-22T18:44:42.473Z,98.76
2022-11-22T18:47:10.049Z,100.00
2022-11-22T18:49:37.749Z,96.21
2022-11-22T18:52:05.689Z,100.00
2022-11-22T18:54:33.633Z,98.66
2022-11-22T18:57:01.187Z,98.85
2022-11-22T18:59:28.689Z,98.90
2022-11-22T19:01:55.962Z,100.00
2022-11-22T19:04:23.346Z,100.00
2022-11-22T19:06:51.438Z,100.00
2022-11-22T19:09:18.719Z,100.00
2022-11-22T19:11:45.948Z,100.00
2022-11-22T19:14:13.288Z,100.00
2022-11-22T19:16:40.653Z,100.00
2022-11-22T19:19:12.240Z,100.00
2022-11-22T19:21:39.719Z,100.00
2022-11-22T19:24:06.961Z,100.00
2022-11-22T19:26:34.953Z,100.00
2022-11-22T19:29:02.902Z,100.00
2022-11-22T19:31:31.587Z,100.00
2022-11-22T19:33:59.994Z,100.00
2022-11-22T19:36:33.378Z,100.00
2022-11-22T19:39:05.675Z,100.00
2022-11-22T19:41:33.535Z,100.00
2022-11-22T19:44:00.939Z,100.00
2022-11-22T19:46:29.265Z,100.00
2022-11-22T19:48:59.676Z,100.00
2022-11-22T19:51:29.506Z,100.00
2022-11-22T19:53:59.672Z,100.00
2022-11-22T19:56:30.693Z,100.00
2022-11-22T19:59:00.094Z,100.00
2022-11-22T20:01:31.033Z,100.00
2022-11-22T20:04:03.541Z,100.00
2022-11-22T20:06:31.797Z,100.00
2022-11-22T20:09:16.822Z,100.00
2022-11-22T20:11:45.616Z,100.00
2022-11-22T20:14:12.942Z,100.00
2022-11-22T20:16:43.321Z,100.00
2022-11-22T20:19:12.519Z,100.00
2022-11-22T20:21:40.541Z,100.00
2022-11-22T20:24:08.553Z,100.00
2022-11-22T20:26:36.451Z,100.00
2022-11-22T20:29:11.297Z,100.00
2022-11-22T20:31:38.951Z,100.00
2022-11-22T20:34:07.446Z,96.98
2022-11-22T20:36:36.173Z,99.59
2022-11-22T20:39:08.599Z,100.00
2022-11-22T20:41:39.053Z,100.00
2022-11-22T20:44:07.250Z,100.00
2022-11-22T20:46:37.826Z,100.00
2022-11-22T20:49:05.435Z,100.00
2022-11-22T20:51:36.032Z,100.00
2022-11-22T20:54:03.578Z,100.00
2022-11-22T20:56:31.126Z,100.00
2022-11-22T20:58:58.419Z,100.00
2022-11-22T21:01:29.525Z,100.00
2022-11-22T21:03:56.966Z,100.00
2022-11-22T21:06:27.624Z,100.00
2022-11-22T21:08:55.653Z,100.00
2022-11-22T21:11:29.375Z,100.00
2022-11-22T21:13:58.551Z,100.00
2022-11-22T21:16:28.941Z,100.00
2022-11-22T21:19:01.671Z,100.00
2022-11-22T21:21:31.779Z,100.00
2022-11-22T21:24:01.471Z,100.00
2022-11-22T21:26:29.335Z,100.00
2022-11-22T21:28:57.946Z,100.00
2022-11-22T21:31:25.701Z,100.00
2022-11-22T21:33:53.875Z,100.00
2022-11-22T21:36:21.937Z,100.00
2022-11-22T21:38:49.453Z,100.00
2022-11-22T21:44:08.406Z,100.00
2022-11-22T21:46:35.708Z,100.00
2022-11-22T21:49:03.097Z,100.00
2022-11-22T21:51:30.430Z,100.00
2022-11-22T21:53:59.329Z,100.00
2022-11-22T21:56:27.813Z,100.00
2022-11-22T21:58:55.206Z,100.00
2022-11-22T22:01:23.497Z,100.00
2022-11-22T22:03:51.172Z,100.00
2022-11-22T22:06:19.075Z,100.00
2022-11-22T22:08:46.307Z,100.00
2022-11-22T22:11:13.761Z,100.00
2022-11-22T22:13:40.994Z,100.00
2022-11-22T22:16:13.095Z,100.00
2022-11-22T22:18:40.397Z,100.00
2022-11-22T22:21:10.570Z,100.00
2022-11-22T22:23:40.327Z,100.00
2022-11-22T22:26:12.552Z,100.00
2022-11-22T22:28:40.892Z,100.00
2022-11-22T22:31:17.059Z,100.00
2022-11-22T22:33:45.819Z,100.00
2022-11-22T22:36:13.837Z,100.00
2022-11-22T22:38:41.604Z,100.00
2022-11-22T22:41:12.817Z,100.00
2022-11-22T22:43:46.205Z,100.00
2022-11-22T22:46:22.894Z,100.00
2022-11-22T22:48:51.006Z,100.00
2022-11-22T22:51:31.645Z,100.00
2022-11-22T22:54:01.132Z,100.00
2022-11-22T22:56:30.719Z,100.00
2022-11-22T22:59:00.848Z,100.00
2022-11-22T23:01:31.076Z,100.00
2022-11-22T23:04:01.085Z,100.00
2022-11-22T23:06:34.971Z,100.00
2022-11-22T23:09:03.985Z,100.00
2022-11-22T23:11:51.496Z,100.00
2022-11-22T23:14:22.497Z,100.00
2022-11-22T23:16:54.556Z,100.00
2022-11-22T23:19:25.325Z,100.00
2022-11-22T23:21:53.245Z,100.00
2022-11-22T23:24:20.609Z,100.00
2022-11-22T23:26:48.132Z,100.00
2022-11-22T23:29:15.558Z,100.00
2022-11-22T23:31:42.882Z,100.00
2022-11-22T23:34:11.552Z,100.00
2022-11-22T23:36:41.022Z,100.00
2022-11-22T23:39:09.333Z,100.00
2022-11-22T23:41:36.552Z,100.00
2022-11-22T23:44:04.037Z,100.00
2022-11-22T23:46:31.250Z,100.00
2022-11-22T23:49:01.333Z,100.00
2022-11-22T23:51:31.267Z,100.00
2022-11-22T23:54:05.027Z,100.00
2022-11-22T23:56:34.887Z,100.00
2022-11-22T23:59:05.165Z,100.00
